sensor_id;sensor_type;location;lat;lon;timestamp;pressure;altitude;pressure_sealevel;temperature;humidity
3260;BME280;22469;48.150;14.004;2022-08-01T00:00:13;97962.03;;;25.41;55.02
3260;BME280;22469;48.150;14.004;2022-08-01T00:02:41;97962.03;;;25.41;55.30
3260;BME280;22469;48.150;14.004;2022-08-01T00:05:09;97961.31;;;25.39;55.07
3260;BME280;22469;48.150;14.004;2022-08-01T00:07:37;97959.00;;;25.36;56.01
3260;BME280;22469;48.150;14.004;2022-08-01T00:10:08;97952.91;;;25.36;56.40
3260;BME280;22469;48.150;14.004;2022-08-01T00:12:38;97952.41;;;25.22;56.87
3260;BME280;22469;48.150;14.004;2022-08-01T00:15:09;97948.28;;;25.20;56.98
3260;BME280;22469;48.150;14.004;2022-08-01T00:17:38;97947.31;;;25.21;57.55
3260;BME280;22469;48.150;14.004;2022-08-01T00:20:07;97940.69;;;25.17;57.67
3260;BME280;22469;48.150;14.004;2022-08-01T00:22:36;97936.25;;;25.17;57.22
3260;BME280;22469;48.150;14.004;2022-08-01T00:25:04;97936.38;;;25.16;57.50
3260;BME280;22469;48.150;14.004;2022-08-01T00:27:32;97933.38;;;25.01;58.24
3260;BME280;22469;48.150;14.004;2022-08-01T00:30:04;97935.59;;;24.96;57.65
3260;BME280;22469;48.150;14.004;2022-08-01T00:32:40;97931.03;;;24.98;58.21
3260;BME280;22469;48.150;14.004;2022-08-01T00:35:09;97926.47;;;25.00;57.56
3260;BME280;22469;48.150;14.004;2022-08-01T00:37:37;97919.84;;;24.96;57.60
3260;BME280;22469;48.150;14.004;2022-08-01T00:40:05;97924.78;;;24.99;56.95
3260;BME280;22469;48.150;14.004;2022-08-01T00:42:33;97927.31;;;24.91;58.17
3260;BME280;22469;48.150;14.004;2022-08-01T00:45:06;97923.75;;;24.82;57.69
3260;BME280;22469;48.150;14.004;2022-08-01T00:47:34;97924.56;;;24.82;58.01
3260;BME280;22469;48.150;14.004;2022-08-01T00:50:03;97921.78;;;24.84;57.92
3260;BME280;22469;48.150;14.004;2022-08-01T00:52:32;97916.53;;;24.84;58.40
3260;BME280;22469;48.150;14.004;2022-08-01T00:55:01;97924.97;;;24.88;58.03
3260;BME280;22469;48.150;14.004;2022-08-01T00:57:28;97917.91;;;24.88;57.92
3260;BME280;22469;48.150;14.004;2022-08-01T01:00:16;97923.44;;;24.85;57.66
3260;BME280;22469;48.150;14.004;2022-08-01T01:02:52;97924.97;;;24.88;57.70
3260;BME280;22469;48.150;14.004;2022-08-01T01:05:19;97924.84;;;24.89;58.35
3260;BME280;22469;48.150;14.004;2022-08-01T01:07:59;97918.63;;;24.90;58.46
3260;BME280;22469;48.150;14.004;2022-08-01T01:10:46;97920.25;;;24.91;58.44
3260;BME280;22469;48.150;14.004;2022-08-01T01:13:35;97916.66;;;24.92;57.50
3260;BME280;22469;48.150;14.004;2022-08-01T01:16:18;97914.88;;;24.93;57.77
3260;BME280;22469;48.150;14.004;2022-08-01T01:18:48;97913.91;;;24.94;57.40
3260;BME280;22469;48.150;14.004;2022-08-01T01:29:44;97904.66;;;24.90;58.45
3260;BME280;22469;48.150;14.004;2022-08-01T01:32:28;97902.31;;;24.87;58.28
3260;BME280;22469;48.150;14.004;2022-08-01T01:35:25;97900.69;;;24.86;58.51
3260;BME280;22469;48.150;14.004;2022-08-01T01:38:00;97897.78;;;24.79;58.86
3260;BME280;22469;48.150;14.004;2022-08-01T01:40:31;97896.00;;;24.79;59.07
3260;BME280;22469;48.150;14.004;2022-08-01T01:43:00;97902.06;;;24.70;60.21
3260;BME280;22469;48.150;14.004;2022-08-01T01:45:28;97896.28;;;24.67;59.62
3260;BME280;22469;48.150;14.004;2022-08-01T01:47:56;97900.28;;;24.61;59.92
3260;BME280;22469;48.150;14.004;2022-08-01T01:50:25;97886.34;;;24.61;59.80
3260;BME280;22469;48.150;14.004;2022-08-01T01:52:53;97889.94;;;24.59;59.79
3260;BME280;22469;48.150;14.004;2022-08-01T01:55:23;97884.81;;;24.58;59.91
3260;BME280;22469;48.150;14.004;2022-08-01T01:57:53;97888.31;;;24.58;59.80
3260;BME280;22469;48.150;14.004;2022-08-01T02:00:23;97882.34;;;24.56;59.87
3260;BME280;22469;48.150;14.004;2022-08-01T02:02:51;97886.34;;;24.61;59.84
3260;BME280;22469;48.150;14.004;2022-08-01T02:05:20;97892.84;;;24.56;60.50
3260;BME280;22469;48.150;14.004;2022-08-01T02:07:49;97879.72;;;24.56;60.21
3260;BME280;22469;48.150;14.004;2022-08-01T02:10:25;97881.25;;;24.59;59.78
3260;BME280;22469;48.150;14.004;2022-08-01T02:12:57;97877.09;;;24.56;59.69
3260;BME280;22469;48.150;14.004;2022-08-01T02:15:26;97886.50;;;24.59;59.41
3260;BME280;22469;48.150;14.004;2022-08-01T02:17:56;97876.94;;;24.58;60.41
3260;BME280;22469;48.150;14.004;2022-08-01T02:20:25;97880.28;;;24.60;60.14
3260;BME280;22469;48.150;14.004;2022-08-01T02:23:01;97876.56;;;24.63;59.95
3260;BME280;22469;48.150;14.004;2022-08-01T02:25:39;97879.19;;;24.63;59.68
3260;BME280;22469;48.150;14.004;2022-08-01T02:28:35;97873.94;;;24.63;59.54
3260;BME280;22469;48.150;14.004;2022-08-01T02:31:08;97873.09;;;24.62;59.89
3260;BME280;22469;48.150;14.004;2022-08-01T02:33:45;97875.72;;;24.62;59.91
3260;BME280;22469;48.150;14.004;2022-08-01T02:36:14;97874.91;;;24.62;60.59
3260;BME280;22469;48.150;14.004;2022-08-01T02:39:02;97874.06;;;24.61;60.58
3260;BME280;22469;48.150;14.004;2022-08-01T02:41:38;97873.38;;;24.59;60.66
3260;BME280;22469;48.150;14.004;2022-08-01T02:44:11;97868.69;;;24.53;60.70
3260;BME280;22469;48.150;14.004;2022-08-01T02:47:00;97866.50;;;24.48;60.71
3260;BME280;22469;48.150;14.004;2022-08-01T02:49:37;97864.81;;;24.47;60.95
3260;BME280;22469;48.150;14.004;2022-08-01T02:52:20;97867.59;;;24.46;61.27
3260;BME280;22469;48.150;14.004;2022-08-01T02:54:51;97869.53;;;24.44;60.81
3260;BME280;22469;48.150;14.004;2022-08-01T02:57:21;97862.63;;;24.43;61.02
3260;BME280;22469;48.150;14.004;2022-08-01T03:00:05;97858.38;;;24.42;61.22
3260;BME280;22469;48.150;14.004;2022-08-01T03:02:34;97862.06;;;24.39;61.17
3260;BME280;22469;48.150;14.004;2022-08-01T03:05:02;97866.06;;;24.33;61.92
3260;BME280;22469;48.150;14.004;2022-08-01T03:07:31;97858.34;;;24.22;61.95
3260;BME280;22469;48.150;14.004;2022-08-01T03:10:06;97861.50;;;24.16;62.06
3260;BME280;22469;48.150;14.004;2022-08-01T03:12:36;97866.09;;;24.14;61.56
3260;BME280;22469;48.150;14.004;2022-08-01T03:15:05;97866.47;;;24.09;62.44
3260;BME280;22469;48.150;14.004;2022-08-01T03:17:37;97859.44;;;24.10;62.47
3260;BME280;22469;48.150;14.004;2022-08-01T03:20:06;97867.44;;;24.08;62.18
3260;BME280;22469;48.150;14.004;2022-08-01T03:22:37;97864.81;;;24.08;62.24
3260;BME280;22469;48.150;14.004;2022-08-01T03:25:06;97870.34;;;24.05;62.48
3260;BME280;22469;48.150;14.004;2022-08-01T03:27:36;97872.84;;;24.07;62.51
3260;BME280;22469;48.150;14.004;2022-08-01T03:30:05;97874.59;;;24.06;62.74
3260;BME280;22469;48.150;14.004;2022-08-01T03:32:33;97871.88;;;24.08;62.78
3260;BME280;22469;48.150;14.004;2022-08-01T03:35:01;97868.28;;;24.09;61.99
3260;BME280;22469;48.150;14.004;2022-08-01T03:37:47;97879.31;;;24.12;61.70
3260;BME280;22469;48.150;14.004;2022-08-01T03:40:43;97875.84;;;24.12;61.74
3260;BME280;22469;48.150;14.004;2022-08-01T03:43:48;97887.31;;;24.11;61.74
3260;BME280;22469;48.150;14.004;2022-08-01T03:46:33;97879.31;;;24.12;61.59
3260;BME280;22469;48.150;14.004;2022-08-01T03:49:11;97874.88;;;24.13;61.60
3260;BME280;22469;48.150;14.004;2022-08-01T03:51:44;97872.25;;;24.13;61.34
3260;BME280;22469;48.150;14.004;2022-08-01T03:54:13;97873.09;;;24.13;61.20
3260;BME280;22469;48.150;14.004;2022-08-01T03:56:42;97873.94;;;24.14;61.65
3260;BME280;22469;48.150;14.004;2022-08-01T03:59:10;97874.06;;;24.12;61.84
3260;BME280;22469;48.150;14.004;2022-08-01T04:01:38;97873.09;;;24.13;61.93
3260;BME280;22469;48.150;14.004;2022-08-01T04:04:05;97867.84;;;24.13;62.03
3260;BME280;22469;48.150;14.004;2022-08-01T04:06:33;97879.19;;;24.14;62.13
3260;BME280;22469;48.150;14.004;2022-08-01T04:09:00;97876.69;;;24.12;62.64
3260;BME280;22469;48.150;14.004;2022-08-01T04:11:27;97881.94;;;24.12;62.49
3260;BME280;22469;48.150;14.004;2022-08-01T04:13:55;97882.75;;;24.13;62.73
3260;BME280;22469;48.150;14.004;2022-08-01T04:16:24;97887.31;;;24.11;62.19
3260;BME280;22469;48.150;14.004;2022-08-01T04:18:52;97886.50;;;24.10;61.77
3260;BME280;22469;48.150;14.004;2022-08-01T04:21:22;97887.44;;;24.09;61.81
3260;BME280;22469;48.150;14.004;2022-08-01T04:23:57;97886.63;;;24.09;62.29
3260;BME280;22469;48.150;14.004;2022-08-01T04:26:27;97890.22;;;24.08;62.02
3260;BME280;22469;48.150;14.004;2022-08-01T04:28:56;97892.28;;;24.04;62.29
3260;BME280;22469;48.150;14.004;2022-08-01T04:31:24;97892.53;;;24.01;62.67
3260;BME280;22469;48.150;14.004;2022-08-01T04:33:54;97894.19;;;23.93;62.50
3260;BME280;22469;48.150;14.004;2022-08-01T04:36:23;97896.13;;;23.91;63.02
3260;BME280;22469;48.150;14.004;2022-08-01T04:38:55;97891.81;;;23.89;62.88
3260;BME280;22469;48.150;14.004;2022-08-01T04:41:26;97902.72;;;23.85;62.97
3260;BME280;22469;48.150;14.004;2022-08-01T04:43:54;97908.38;;;23.80;62.97
3260;BME280;22469;48.150;14.004;2022-08-01T04:46:22;97899.81;;;23.78;63.50
3260;BME280;22469;48.150;14.004;2022-08-01T04:48:49;97904.78;;;23.81;63.32
3260;BME280;22469;48.150;14.004;2022-08-01T04:51:17;97907.97;;;23.85;63.52
3260;BME280;22469;48.150;14.004;2022-08-01T04:53:49;97908.66;;;23.87;63.38
3260;BME280;22469;48.150;14.004;2022-08-01T04:56:19;97902.88;;;23.93;63.27
3260;BME280;22469;48.150;14.004;2022-08-01T04:58:47;97918.63;;;23.93;63.35
3260;BME280;22469;48.150;14.004;2022-08-01T05:01:14;97920.53;;;23.91;63.55
3260;BME280;22469;48.150;14.004;2022-08-01T05:03:42;97919.44;;;23.94;62.98
3260;BME280;22469;48.150;14.004;2022-08-01T05:06:10;97920.09;;;23.96;63.20
3260;BME280;22469;48.150;14.004;2022-08-01T05:08:37;97913.63;;;24.00;63.21
3260;BME280;22469;48.150;14.004;2022-08-01T05:11:04;97918.34;;;24.06;63.08
3260;BME280;22469;48.150;14.004;2022-08-01T05:13:31;97922.03;;;24.03;63.09
3260;BME280;22469;48.150;14.004;2022-08-01T05:15:58;97924.66;;;24.03;63.14
3260;BME280;22469;48.150;14.004;2022-08-01T05:18:25;97922.63;;;23.97;63.27
3260;BME280;22469;48.150;14.004;2022-08-01T05:20:54;97925.91;;;23.99;63.27
3260;BME280;22469;48.150;14.004;2022-08-01T05:23:22;97926.31;;;23.95;62.75
3260;BME280;22469;48.150;14.004;2022-08-01T05:26:10;97930.06;;;24.02;63.34
3260;BME280;22469;48.150;14.004;2022-08-01T05:28:41;97928.69;;;23.98;62.69
3260;BME280;22469;48.150;14.004;2022-08-01T05:31:08;97919.44;;;24.03;62.72
3260;BME280;22469;48.150;14.004;2022-08-01T05:33:35;97918.78;;;24.11;62.65
3260;BME280;22469;48.150;14.004;2022-08-01T05:36:03;97917.94;;;24.10;61.84
3260;BME280;22469;48.150;14.004;2022-08-01T05:38:30;97923.47;;;24.17;62.43
3260;BME280;22469;48.150;14.004;2022-08-01T05:40:57;97927.88;;;24.26;62.12
3260;BME280;22469;48.150;14.004;2022-08-01T05:43:24;97934.38;;;24.32;61.64
3260;BME280;22469;48.150;14.004;2022-08-01T05:45:54;97941.25;;;24.33;61.33
3260;BME280;22469;48.150;14.004;2022-08-01T05:48:22;97948.84;;;24.36;61.11
3260;BME280;22469;48.150;14.004;2022-08-01T05:50:49;97948.19;;;24.44;60.39
3260;BME280;22469;48.150;14.004;2022-08-01T05:53:23;97953.88;;;24.49;60.50
3260;BME280;22469;48.150;14.004;2022-08-01T05:55:50;97956.50;;;24.49;59.96
3260;BME280;22469;48.150;14.004;2022-08-01T05:58:17;97958.00;;;24.61;60.22
3260;BME280;22469;48.150;14.004;2022-08-01T06:00:44;97954.25;;;24.73;59.72
3260;BME280;22469;48.150;14.004;2022-08-01T06:03:11;97954.09;;;24.85;60.38
3260;BME280;22469;48.150;14.004;2022-08-01T06:05:39;97956.28;;;24.99;59.60
3260;BME280;22469;48.150;14.004;2022-08-01T06:08:06;97958.22;;;25.06;59.09
3260;BME280;22469;48.150;14.004;2022-08-01T06:10:34;97957.38;;;25.16;58.94
3260;BME280;22469;48.150;14.004;2022-08-01T06:13:00;97961.94;;;25.23;58.27
3260;BME280;22469;48.150;14.004;2022-08-01T06:15:32;97959.88;;;25.27;57.94
3260;BME280;22469;48.150;14.004;2022-08-01T06:18:00;97955.25;;;25.39;57.85
3260;BME280;22469;48.150;14.004;2022-08-01T06:20:27;97962.28;;;25.48;57.83
3260;BME280;22469;48.150;14.004;2022-08-01T06:22:54;97952.16;;;25.53;56.33
3260;BME280;22469;48.150;14.004;2022-08-01T06:25:21;97960.16;;;25.61;56.18
3260;BME280;22469;48.150;14.004;2022-08-01T06:27:49;97972.84;;;25.66;55.81
3260;BME280;22469;48.150;14.004;2022-08-01T06:30:16;97967.56;;;25.75;55.41
3260;BME280;22469;48.150;14.004;2022-08-01T06:32:43;97973.63;;;25.86;55.48
3260;BME280;22469;48.150;14.004;2022-08-01T06:35:10;97977.31;;;25.93;55.33
3260;BME280;22469;48.150;14.004;2022-08-01T06:37:37;97978.22;;;26.02;55.81
3260;BME280;22469;48.150;14.004;2022-08-01T06:40:06;97980.94;;;26.10;55.11
3260;BME280;22469;48.150;14.004;2022-08-01T06:42:42;97973.44;;;26.15;53.60
3260;BME280;22469;48.150;14.004;2022-08-01T06:45:10;97981.19;;;26.16;53.46
3260;BME280;22469;48.150;14.004;2022-08-01T06:47:39;97974.34;;;26.23;52.84
3260;BME280;22469;48.150;14.004;2022-08-01T06:50:08;97986.56;;;26.15;51.65
3260;BME280;22469;48.150;14.004;2022-08-01T06:52:37;97976.97;;;26.06;50.13
3260;BME280;22469;48.150;14.004;2022-08-01T06:55:05;97979.97;;;26.11;48.76
3260;BME280;22469;48.150;14.004;2022-08-01T06:57:32;97986.22;;;26.28;47.75
3260;BME280;22469;48.150;14.004;2022-08-01T07:00:03;97991.66;;;26.26;46.46
3260;BME280;22469;48.150;14.004;2022-08-01T07:02:34;97986.44;;;26.16;47.55
3260;BME280;22469;48.150;14.004;2022-08-01T07:05:04;97991.72;;;26.16;46.67
3260;BME280;22469;48.150;14.004;2022-08-01T07:07:31;97993.28;;;26.27;46.77
3260;BME280;22469;48.150;14.004;2022-08-01T07:09:58;97987.53;;;26.41;46.94
3260;BME280;22469;48.150;14.004;2022-08-01T07:12:25;97987.72;;;26.58;45.79
3260;BME280;22469;48.150;14.004;2022-08-01T07:14:52;97992.06;;;26.67;47.90
3260;BME280;22469;48.150;14.004;2022-08-01T07:17:19;98000.94;;;26.84;45.59
3260;BME280;22469;48.150;14.004;2022-08-01T07:19:47;98000.81;;;26.50;46.08
3260;BME280;22469;48.150;14.004;2022-08-01T07:22:14;97997.41;;;26.57;46.48
3260;BME280;22469;48.150;14.004;2022-08-01T07:24:49;97997.09;;;26.78;46.09
3260;BME280;22469;48.150;14.004;2022-08-01T07:27:20;97997.47;;;26.83;45.20
3260;BME280;22469;48.150;14.004;2022-08-01T07:29:51;97996.88;;;26.72;45.65
3260;BME280;22469;48.150;14.004;2022-08-01T07:32:19;97988.50;;;26.76;45.75
3260;BME280;22469;48.150;14.004;2022-08-01T07:34:46;97991.81;;;26.96;44.67
3260;BME280;22469;48.150;14.004;2022-08-01T07:37:13;97993.63;;;26.96;46.07
3260;BME280;22469;48.150;14.004;2022-08-01T07:39:40;97991.28;;;26.92;45.12
3260;BME280;22469;48.150;14.004;2022-08-01T07:42:07;97992.63;;;26.97;45.08
3260;BME280;22469;48.150;14.004;2022-08-01T07:44:36;97993.06;;;27.10;44.70
3260;BME280;22469;48.150;14.004;2022-08-01T07:47:04;97997.22;;;27.12;45.40
3260;BME280;22469;48.150;14.004;2022-08-01T07:49:32;98003.44;;;27.29;45.25
3260;BME280;22469;48.150;14.004;2022-08-01T07:52:06;98003.97;;;26.97;44.90
3260;BME280;22469;48.150;14.004;2022-08-01T07:54:33;98007.03;;;27.10;44.41
3260;BME280;22469;48.150;14.004;2022-08-01T07:57:02;98006.78;;;27.13;44.13
3260;BME280;22469;48.150;14.004;2022-08-01T07:59:30;98010.97;;;27.06;44.62
3260;BME280;22469;48.150;14.004;2022-08-01T08:01:57;98006.22;;;27.10;44.79
3260;BME280;22469;48.150;14.004;2022-08-01T08:04:25;98003.34;;;27.39;44.01
3260;BME280;22469;48.150;14.004;2022-08-01T08:06:53;98011.78;;;27.51;43.54
3260;BME280;22469;48.150;14.004;2022-08-01T08:09:21;98011.25;;;27.39;43.95
3260;BME280;22469;48.150;14.004;2022-08-01T08:11:48;98009.25;;;27.41;43.12
3260;BME280;22469;48.150;14.004;2022-08-01T08:14:16;98014.47;;;27.59;43.50
3260;BME280;22469;48.150;14.004;2022-08-01T08:16:44;98013.28;;;27.53;43.75
3260;BME280;22469;48.150;14.004;2022-08-01T08:19:11;98017.09;;;27.59;44.03
3260;BME280;22469;48.150;14.004;2022-08-01T08:21:39;98019.59;;;27.60;43.75
3260;BME280;22469;48.150;14.004;2022-08-01T08:24:08;98016.22;;;27.24;44.76
3260;BME280;22469;48.150;14.004;2022-08-01T08:26:59;98016.66;;;27.37;44.41
3260;BME280;22469;48.150;14.004;2022-08-01T08:29:30;98018.72;;;27.08;45.35
3260;BME280;22469;48.150;14.004;2022-08-01T08:32:00;98020.47;;;26.99;44.91
3260;BME280;22469;48.150;14.004;2022-08-01T08:34:28;98021.59;;;26.79;44.51
3260;BME280;22469;48.150;14.004;2022-08-01T08:36:56;98026.41;;;27.19;44.72
3260;BME280;22469;48.150;14.004;2022-08-01T08:39:25;98034.97;;;27.03;44.41
3260;BME280;22469;48.150;14.004;2022-08-01T08:41:53;98035.13;;;27.02;45.02
3260;BME280;22469;48.150;14.004;2022-08-01T08:44:20;98036.13;;;27.19;44.78
3260;BME280;22469;48.150;14.004;2022-08-01T08:46:50;98031.31;;;27.40;44.63
3260;BME280;22469;48.150;14.004;2022-08-01T08:49:21;98024.97;;;27.77;43.93
3260;BME280;22469;48.150;14.004;2022-08-01T08:51:51;98033.84;;;28.10;45.01
3260;BME280;22469;48.150;14.004;2022-08-01T08:54:21;98030.59;;;27.82;42.55
3260;BME280;22469;48.150;14.004;2022-08-01T08:56:58;98037.75;;;27.98;42.63
3260;BME280;22469;48.150;14.004;2022-08-01T08:59:27;98041.28;;;28.15;41.64
3260;BME280;22469;48.150;14.004;2022-08-01T09:01:56;98033.25;;;28.24;42.70
3260;BME280;22469;48.150;14.004;2022-08-01T09:04:24;98040.34;;;28.32;41.43
3260;BME280;22469;48.150;14.004;2022-08-01T09:06:53;98035.47;;;28.45;42.55
3260;BME280;22469;48.150;14.004;2022-08-01T09:09:21;98032.97;;;28.44;42.37
3260;BME280;22469;48.150;14.004;2022-08-01T09:11:50;98041.75;;;28.52;41.69
3260;BME280;22469;48.150;14.004;2022-08-01T09:14:30;98040.28;;;28.66;41.60
3260;BME280;22469;48.150;14.004;2022-08-01T09:17:07;98037.66;;;28.91;41.98
3260;BME280;22469;48.150;14.004;2022-08-01T09:19:40;98037.88;;;29.14;40.58
3260;BME280;22469;48.150;14.004;2022-08-01T09:22:14;98035.50;;;29.43;40.88
3260;BME280;22469;48.150;14.004;2022-08-01T09:27:27;98039.16;;;29.26;40.38
3260;BME280;22469;48.150;14.004;2022-08-01T09:33:01;98027.41;;;29.37;40.88
3260;BME280;22469;48.150;14.004;2022-08-01T09:35:43;98023.09;;;29.60;40.91
3260;BME280;22469;48.150;14.004;2022-08-01T09:38:20;98026.03;;;29.82;41.83
3260;BME280;22469;48.150;14.004;2022-08-01T09:40:52;98025.72;;;29.77;40.41
3260;BME280;22469;48.150;14.004;2022-08-01T09:43:27;98025.22;;;29.57;40.19
3260;BME280;22469;48.150;14.004;2022-08-01T09:45:57;98021.38;;;29.84;40.33
3260;BME280;22469;48.150;14.004;2022-08-01T09:48:26;98019.00;;;30.05;39.23
3260;BME280;22469;48.150;14.004;2022-08-01T09:50:57;98014.00;;;30.10;39.25
3260;BME280;22469;48.150;14.004;2022-08-01T09:53:46;98012.88;;;30.36;39.09
3260;BME280;22469;48.150;14.004;2022-08-01T09:56:20;98015.44;;;30.29;39.14
3260;BME280;22469;48.150;14.004;2022-08-01T09:58:58;98015.56;;;29.96;39.17
3260;BME280;22469;48.150;14.004;2022-08-01T10:01:41;98009.97;;;30.31;38.76
3260;BME280;22469;48.150;14.004;2022-08-01T10:04:18;98012.41;;;30.63;38.13
3260;BME280;22469;48.150;14.004;2022-08-01T10:06:49;98002.63;;;30.87;39.06
3260;BME280;22469;48.150;14.004;2022-08-01T10:09:28;98011.38;;;31.10;36.55
3260;BME280;22469;48.150;14.004;2022-08-01T10:12:07;97994.69;;;30.87;37.10
3260;BME280;22469;48.150;14.004;2022-08-01T10:14:43;97998.78;;;31.12;38.17
3260;BME280;22469;48.150;14.004;2022-08-01T10:17:17;97993.59;;;30.81;38.57
3260;BME280;22469;48.150;14.004;2022-08-01T10:19:46;97991.53;;;30.91;37.34
3260;BME280;22469;48.150;14.004;2022-08-01T10:22:18;97995.06;;;30.53;36.81
3260;BME280;22469;48.150;14.004;2022-08-01T10:24:47;98000.09;;;30.48;37.92
3260;BME280;22469;48.150;14.004;2022-08-01T10:27:18;97993.13;;;30.24;38.30
3260;BME280;22469;48.150;14.004;2022-08-01T10:30:03;97987.09;;;30.61;37.76
3260;BME280;22469;48.150;14.004;2022-08-01T10:32:50;97985.84;;;30.49;38.02
3260;BME280;22469;48.150;14.004;2022-08-01T10:35:21;97979.06;;;30.69;38.70
3260;BME280;22469;48.150;14.004;2022-08-01T10:38:08;97986.94;;;30.85;37.47
3260;BME280;22469;48.150;14.004;2022-08-01T10:40:37;97984.13;;;31.02;37.38
3260;BME280;22469;48.150;14.004;2022-08-01T10:43:05;97971.97;;;31.07;37.71
3260;BME280;22469;48.150;14.004;2022-08-01T10:45:33;97965.22;;;31.43;36.96
3260;BME280;22469;48.150;14.004;2022-08-01T10:48:09;97971.41;;;31.35;37.17
3260;BME280;22469;48.150;14.004;2022-08-01T10:50:52;97968.16;;;31.25;37.71
3260;BME280;22469;48.150;14.004;2022-08-01T10:53:21;97966.06;;;30.59;36.48
3260;BME280;22469;48.150;14.004;2022-08-01T10:56:08;97967.78;;;30.75;37.41
3260;BME280;22469;48.150;14.004;2022-08-01T10:58:42;97956.72;;;30.95;34.99
3260;BME280;22469;48.150;14.004;2022-08-01T11:06:52;97960.13;;;31.18;34.73
3260;BME280;22469;48.150;14.004;2022-08-01T11:09:28;97958.22;;;31.27;35.00
3260;BME280;22469;48.150;14.004;2022-08-01T11:20:16;97955.41;;;31.28;35.32
3260;BME280;22469;48.150;14.004;2022-08-01T11:28:27;97953.59;;;30.91;35.15
3260;BME280;22469;48.150;14.004;2022-08-01T11:41:26;97946.59;;;30.98;35.17
3260;BME280;22469;48.150;14.004;2022-08-01T11:44:19;97944.97;;;31.27;35.26
3260;BME280;22469;48.150;14.004;2022-08-01T11:46:57;97933.81;;;30.56;35.09
3260;BME280;22469;48.150;14.004;2022-08-01T11:52:37;97927.72;;;30.78;35.85
3260;BME280;22469;48.150;14.004;2022-08-01T11:55:08;97936.50;;;30.93;34.96
3260;BME280;22469;48.150;14.004;2022-08-01T11:57:37;97926.16;;;31.36;34.24
3260;BME280;22469;48.150;14.004;2022-08-01T12:00:14;97932.09;;;31.53;34.12
3260;BME280;22469;48.150;14.004;2022-08-01T12:05:31;97929.97;;;31.19;33.79
3260;BME280;22469;48.150;14.004;2022-08-01T12:08:00;97922.47;;;31.08;35.02
3260;BME280;22469;48.150;14.004;2022-08-01T12:10:33;97920.03;;;30.83;34.83
3260;BME280;22469;48.150;14.004;2022-08-01T12:13:15;97930.53;;;30.77;34.74
3260;BME280;22469;48.150;14.004;2022-08-01T12:15:44;97925.13;;;31.08;34.79
3260;BME280;22469;48.150;14.004;2022-08-01T12:18:13;97930.53;;;31.29;34.64
3260;BME280;22469;48.150;14.004;2022-08-01T12:20:43;97920.28;;;31.11;33.40
3260;BME280;22469;48.150;14.004;2022-08-01T12:23:27;97919.72;;;31.16;34.00
3260;BME280;22469;48.150;14.004;2022-08-01T12:25:54;97921.47;;;31.09;34.78
3260;BME280;22469;48.150;14.004;2022-08-01T12:28:21;97917.75;;;31.48;34.57
3260;BME280;22469;48.150;14.004;2022-08-01T12:30:49;97917.19;;;31.52;34.29
3260;BME280;22469;48.150;14.004;2022-08-01T12:33:18;97925.88;;;31.46;34.40
3260;BME280;22469;48.150;14.004;2022-08-01T12:35:47;97922.97;;;31.56;34.58
3260;BME280;22469;48.150;14.004;2022-08-01T12:38:17;97908.75;;;31.49;34.54
3260;BME280;22469;48.150;14.004;2022-08-01T12:40:49;97921.94;;;31.57;34.69
3260;BME280;22469;48.150;14.004;2022-08-01T12:43:20;97928.50;;;31.31;34.92
3260;BME280;22469;48.150;14.004;2022-08-01T12:45:56;97925.16;;;31.37;34.61
3260;BME280;22469;48.150;14.004;2022-08-01T12:48:25;97928.81;;;31.36;36.06
3260;BME280;22469;48.150;14.004;2022-08-01T12:50:53;97932.28;;;31.37;37.78
3260;BME280;22469;48.150;14.004;2022-08-01T12:53:25;97931.16;;;31.16;41.65
3260;BME280;22469;48.150;14.004;2022-08-01T12:56:07;97926.75;;;31.09;43.38
3260;BME280;22469;48.150;14.004;2022-08-01T12:58:38;97936.97;;;30.97;45.56
3260;BME280;22469;48.150;14.004;2022-08-01T13:01:10;97930.59;;;30.91;45.23
3260;BME280;22469;48.150;14.004;2022-08-01T13:03:39;97931.50;;;30.99;45.42
3260;BME280;22469;48.150;14.004;2022-08-01T13:06:14;97933.97;;;31.00;45.66
3260;BME280;22469;48.150;14.004;2022-08-01T13:08:44;97929.31;;;31.02;45.34
3260;BME280;22469;48.150;14.004;2022-08-01T13:11:13;97938.66;;;31.13;45.22
3260;BME280;22469;48.150;14.004;2022-08-01T13:13:46;97933.69;;;31.10;44.47
3260;BME280;22469;48.150;14.004;2022-08-01T13:16:21;97938.94;;;31.18;45.46
3260;BME280;22469;48.150;14.004;2022-08-01T13:18:59;97937.47;;;31.15;40.77
3260;BME280;22469;48.150;14.004;2022-08-01T13:21:31;97941.28;;;31.28;44.08
3260;BME280;22469;48.150;14.004;2022-08-01T13:24:27;97931.25;;;31.38;43.68
3260;BME280;22469;48.150;14.004;2022-08-01T13:27:00;97930.19;;;31.47;43.71
3260;BME280;22469;48.150;14.004;2022-08-01T13:29:36;97939.88;;;31.70;42.34
3260;BME280;22469;48.150;14.004;2022-08-01T13:32:21;97917.75;;;31.99;40.51
3260;BME280;22469;48.150;14.004;2022-08-01T13:35:05;97918.34;;;31.94;38.14
3260;BME280;22469;48.150;14.004;2022-08-01T13:37:36;97919.38;;;32.15;38.53
3260;BME280;22469;48.150;14.004;2022-08-01T13:40:06;97921.88;;;32.23;39.37
3260;BME280;22469;48.150;14.004;2022-08-01T13:42:35;97916.44;;;32.46;39.09
3260;BME280;22469;48.150;14.004;2022-08-01T13:45:04;97910.41;;;32.59;37.75
3260;BME280;22469;48.150;14.004;2022-08-01T13:47:43;97912.28;;;32.65;37.06
3260;BME280;22469;48.150;14.004;2022-08-01T13:50:30;97911.13;;;32.74;36.46
3260;BME280;22469;48.150;14.004;2022-08-01T13:52:58;97907.31;;;32.83;36.58
3260;BME280;22469;48.150;14.004;2022-08-01T13:55:25;97902.50;;;32.93;36.33
3260;BME280;22469;48.150;14.004;2022-08-01T13:57:59;97907.56;;;33.16;35.92
3260;BME280;22469;48.150;14.004;2022-08-01T14:00:26;97907.56;;;33.16;36.53
3260;BME280;22469;48.150;14.004;2022-08-01T14:02:53;97902.28;;;33.51;35.37
3260;BME280;22469;48.150;14.004;2022-08-01T14:05:20;97911.75;;;33.73;34.74
3260;BME280;22469;48.150;14.004;2022-08-01T14:07:47;97900.09;;;33.81;33.68
3260;BME280;22469;48.150;14.004;2022-08-01T14:10:14;97905.44;;;33.88;33.73
3260;BME280;22469;48.150;14.004;2022-08-01T14:12:49;97898.97;;;34.04;34.31